Time;durP1;ratioP1;P1;durP2;ratioP2;P2;SDS_P1;SDS_P2;PMS_P1;PMS_P2;Temp;Humidity;BMP_temperature;BMP_pressure;BME280_temperature;BME280_humidity;BME280_pressure;Samples;Min_cycle;Max_cycle;Signal;HPM_P1;HPM_P2
2021/10/05 00:00:41;;;;;;;5.30;2.87;;;;;;;14.93;nan;101111.56;5074389;28;20228;-71
2021/10/05 00:03:06;;;;;;;6.60;3.00;;;;;;;14.95;nan;101122.19;5056650;28;20202;-71
2021/10/05 00:05:32;;;;;;;5.80;3.60;;;;;;;14.93;nan;101114.25;5056503;28;20182;-72
2021/10/05 00:07:58;;;;;;;6.57;3.20;;;;;;;14.82;nan;101111.38;5056340;28;20722;-73
2021/10/05 00:10:23;;;;;;;5.70;4.03;;;;;;;14.83;nan;101114.94;5074119;28;20195;-73
2021/10/05 00:12:49;;;;;;;7.77;3.23;;;;;;;14.98;nan;101112.09;5056340;28;20572;-72
2021/10/05 00:15:15;;;;;;;6.03;3.50;;;;;;;14.82;nan;101103.31;5074608;28;20175;-72
2021/10/05 00:17:40;;;;;;;5.67;3.33;;;;;;;14.83;nan;101099.66;5056079;28;20645;-72
2021/10/05 00:20:07;;;;;;;8.43;3.30;;;;;;;15.02;nan;101093.94;5056015;28;20186;-72
2021/10/05 00:22:32;;;;;;;6.17;3.67;;;;;;;15.02;nan;101089.44;5055844;28;20198;-73
2021/10/05 00:24:58;;;;;;;6.53;3.90;;;;;;;15.01;nan;101092.22;5055802;28;20167;-73
2021/10/05 00:27:23;;;;;;;8.97;4.13;;;;;;;15.02;nan;101105.56;5055822;28;20178;-73
2021/10/05 00:29:48;;;;;;;5.77;3.63;;;;;;;15.00;nan;101106.63;5073596;28;20203;-71
2021/10/05 00:32:14;;;;;;;5.53;3.67;;;;;;;15.11;nan;101090.63;5055789;28;20191;-72
2021/10/05 00:34:39;;;;;;;7.30;3.80;;;;;;;15.12;nan;101089.66;5055687;28;20655;-72
2021/10/05 00:37:04;;;;;;;11.47;4.00;;;;;;;15.02;nan;101089.44;5055662;28;20182;-71
2021/10/05 00:39:30;;;;;;;6.07;3.17;;;;;;;15.05;nan;101088.34;5055910;28;20174;-72
2021/10/05 00:41:55;;;;;;;5.17;3.43;;;;;;;15.07;nan;101089.09;5055410;28;20248;-72
2021/10/05 00:44:29;;;;;;;7.70;3.93;;;;;;;15.07;nan;101090.94;5038850;28;20704;-71
2021/10/05 00:46:54;;;;;;;7.97;3.60;;;;;;;15.04;nan;101086.63;5038883;28;20179;-72
2021/10/05 00:49:19;;;;;;;8.23;3.60;;;;;;;15.08;nan;101095.34;5055416;28;20179;-72
2021/10/05 00:51:44;;;;;;;7.30;3.97;;;;;;;15.08;nan;101093.53;5055216;28;20217;-72
2021/10/05 00:54:10;;;;;;;6.37;3.17;;;;;;;15.11;nan;101081.69;5073299;28;20647;-71
2021/10/05 00:56:35;;;;;;;8.30;4.13;;;;;;;14.91;nan;101073.16;5072998;28;20189;-71
2021/10/05 00:59:00;;;;;;;5.20;3.53;;;;;;;14.92;nan;101068.66;5055080;28;20171;-71
2021/10/05 01:01:25;;;;;;;15.27;3.93;;;;;;;14.90;nan;101070.59;5054985;28;20171;-72
2021/10/05 01:03:51;;;;;;;6.30;3.70;;;;;;;14.77;nan;101065.16;5073189;28;20175;-72
2021/10/05 01:06:16;;;;;;;7.20;3.83;;;;;;;14.83;nan;101062.03;5055156;28;20186;-73
2021/10/05 01:08:41;;;;;;;10.27;3.47;;;;;;;14.92;nan;101053.38;5054899;28;20226;-74
2021/10/05 01:11:07;;;;;;;10.07;4.00;;;;;;;15.01;nan;101052.75;5054760;28;20217;-73
2021/10/05 01:13:32;;;;;;;7.77;3.20;;;;;;;15.07;nan;101054.16;5038072;28;20225;-73
2021/10/05 01:15:57;;;;;;;6.50;3.50;;;;;;;15.15;nan;101049.13;5054807;28;20266;-73
2021/10/05 01:18:23;;;;;;;8.77;3.80;;;;;;;15.11;nan;101050.31;5054973;28;20191;-72
2021/10/05 01:20:54;;;;;;;8.37;3.77;;;;;;;15.27;nan;101055.50;5072616;28;20175;-72
2021/10/05 01:23:21;;;;;;;9.33;3.80;;;;;;;15.19;nan;101047.94;5054905;28;20657;-72
2021/10/05 01:25:47;;;;;;;7.03;3.50;;;;;;;14.80;nan;101034.53;5054682;28;20644;-72
2021/10/05 01:28:12;;;;;;;10.07;3.63;;;;;;;14.72;nan;101032.34;5072687;28;20183;-72
2021/10/05 01:30:37;;;;;;;8.53;3.67;;;;;;;14.77;nan;101035.59;5072435;28;20194;-72
2021/10/05 01:33:03;;;;;;;7.17;3.43;;;;;;;14.68;nan;101037.06;5072835;28;20194;-72
2021/10/05 01:35:28;;;;;;;5.97;3.57;;;;;;;14.35;nan;101028.53;5055473;28;20603;-73
2021/10/05 01:37:53;;;;;;;7.00;4.00;;;;;;;14.06;nan;101031.28;5054695;28;20179;-72
2021/10/05 01:40:19;;;;;;;6.03;3.50;;;;;;;14.01;nan;101027.16;5055295;28;20175;-72
2021/10/05 01:42:44;;;;;;;5.53;3.33;;;;;;;14.05;nan;101029.53;5072649;28;20195;-72
2021/10/05 01:45:09;;;;;;;9.33;4.30;;;;;;;14.09;nan;101033.75;5054686;28;20614;-72
2021/10/05 01:47:35;;;;;;;9.53;3.70;;;;;;;14.23;nan;101032.03;5060600;28;20739;-72
2021/10/05 01:50:00;;;;;;;5.53;3.67;;;;;;;14.42;nan;101045.94;5074651;28;20216;-72
2021/10/05 01:52:25;;;;;;;10.17;4.03;;;;;;;14.50;nan;101035.63;5054625;28;20217;-72
2021/10/05 01:54:51;;;;;;;6.97;3.90;;;;;;;14.54;nan;101033.59;5054654;28;20182;-72
2021/10/05 01:57:16;;;;;;;6.23;3.40;;;;;;;14.49;nan;101023.13;5038243;28;20178;-72
2021/10/05 01:59:41;;;;;;;6.63;3.60;;;;;;;14.46;nan;101019.78;5072623;28;20597;-72
2021/10/05 02:02:06;;;;;;;8.10;4.30;;;;;;;14.61;nan;101016.09;5072625;28;20201;-73
2021/10/05 02:04:32;;;;;;;7.33;3.60;;;;;;;14.77;nan;101016.78;5054591;28;20183;-73
2021/10/05 02:06:57;;;;;;;9.17;4.33;;;;;;;14.72;nan;101010.00;5072665;28;20183;-73
2021/10/05 02:09:23;;;;;;;7.37;3.90;;;;;;;14.66;nan;101012.13;5054909;28;20178;-73
2021/10/05 02:11:48;;;;;;;5.70;3.70;;;;;;;14.73;nan;101017.09;5054782;28;20226;-73
2021/10/05 02:14:13;;;;;;;10.47;4.70;;;;;;;14.84;nan;101017.22;5055116;28;20167;-73
2021/10/05 02:16:39;;;;;;;7.13;3.77;;;;;;;14.85;nan;101014.44;5054679;28;20203;-72
2021/10/05 02:19:05;;;;;;;9.20;3.57;;;;;;;14.90;nan;101019.53;5072666;28;20187;-72
2021/10/05 02:21:31;;;;;;;9.77;3.57;;;;;;;14.93;nan;101017.50;5039650;28;20202;-73
2021/10/05 02:26:40;;;;;;;6.53;3.30;;;;;;;14.95;nan;101015.56;5061340;28;20248;-73
2021/10/05 02:29:06;;;;;;;7.60;4.00;;;;;;;14.68;nan;101004.84;5058253;28;20590;-73
2021/10/05 02:31:31;;;;;;;5.47;4.07;;;;;;;14.81;nan;101004.84;5075739;28;20244;-72
2021/10/05 02:33:57;;;;;;;7.10;4.27;;;;;;;14.53;nan;100994.28;5058317;28;20209;-73
2021/10/05 02:36:22;;;;;;;9.70;4.60;;;;;;;14.36;nan;100993.53;5041357;28;20182;-73
2021/10/05 02:38:47;;;;;;;10.97;4.83;;;;;;;14.55;nan;100998.56;5057843;28;20206;-72
2021/10/05 02:41:13;;;;;;;6.97;4.43;;;;;;;14.77;nan;100997.97;5075669;28;20260;-73
2021/10/05 02:43:38;;;;;;;9.80;4.20;;;;;;;14.72;nan;100997.44;5057929;28;20186;-73
2021/10/05 02:46:04;;;;;;;7.40;4.03;;;;;;;14.74;nan;100989.25;5057862;28;20230;-72
2021/10/05 02:48:29;;;;;;;8.83;4.50;;;;;;;14.65;nan;100986.25;5057983;28;20182;-72
2021/10/05 02:50:54;;;;;;;10.10;4.23;;;;;;;14.68;nan;100979.81;5057652;28;20664;-72
2021/10/05 02:53:19;;;;;;;7.93;4.60;;;;;;;14.78;nan;100972.81;5057654;28;20264;-72
2021/10/05 02:55:47;;;;;;;8.57;3.93;;;;;;;14.63;nan;100969.38;5075586;28;20182;-72
2021/10/05 02:58:12;;;;;;;7.90;4.60;;;;;;;14.38;nan;100954.00;5041212;28;20179;-73
2021/10/05 03:00:37;;;;;;;9.00;4.80;;;;;;;14.49;nan;100960.50;5057962;28;20622;-72
2021/10/05 03:03:02;;;;;;;11.33;4.90;;;;;;;14.49;nan;100965.88;5075472;28;20191;-72
2021/10/05 03:05:28;;;;;;;6.07;4.33;;;;;;;14.41;nan;100961.00;5075271;28;20236;-72
2021/10/05 03:07:53;;;;;;;6.80;4.73;;;;;;;14.45;nan;100967.03;5075216;28;20179;-72
2021/10/05 03:10:18;;;;;;;7.33;4.80;;;;;;;14.64;nan;100962.19;5057214;28;20633;-71
2021/10/05 03:12:44;;;;;;;10.53;5.37;;;;;;;14.48;nan;100956.09;5098086;23;20229;-65
2021/10/05 03:15:09;;;;;;;7.33;4.73;;;;;;;14.58;nan;100951.84;5095967;28;20182;-65
2021/10/05 03:17:34;;;;;;;6.00;4.40;;;;;;;14.62;nan;100956.91;5096049;28;20714;-67
2021/10/05 03:20:00;;;;;;;8.33;4.63;;;;;;;14.75;nan;100956.91;5095898;28;20517;-67
2021/10/05 03:22:25;;;;;;;9.20;5.07;;;;;;;14.75;nan;100956.06;5094208;28;20198;-66
2021/10/05 03:24:50;;;;;;;13.33;5.53;;;;;;;14.64;nan;100944.22;5095737;28;20179;-66
2021/10/05 03:27:16;;;;;;;10.73;4.63;;;;;;;14.50;nan;100949.69;5095232;28;20209;-66
2021/10/05 03:29:41;;;;;;;12.13;5.67;;;;;;;14.58;nan;100954.53;5095370;28;20178;-66
2021/10/05 03:32:07;;;;;;;9.70;5.37;;;;;;;14.54;nan;100945.81;5094751;28;20205;-66
2021/10/05 03:34:32;;;;;;;12.13;6.43;;;;;;;14.58;nan;100941.09;5076937;28;20209;-66
2021/10/05 03:36:57;;;;;;;16.07;6.40;;;;;;;14.56;nan;100934.97;5095001;28;20232;-66
2021/10/05 03:39:23;;;;;;;14.07;6.60;;;;;;;14.41;nan;100926.09;5095546;28;20180;-66
2021/10/05 03:41:49;;;;;;;20.87;7.00;;;;;;;14.35;nan;100922.00;5093720;28;20563;-67
2021/10/05 03:44:14;;;;;;;15.13;7.13;;;;;;;14.47;nan;100912.28;5093876;28;20166;-67
2021/10/05 03:46:39;;;;;;;15.53;7.97;;;;;;;14.52;nan;100910.16;5095102;28;20206;-66
2021/10/05 03:49:05;;;;;;;15.23;7.33;;;;;;;14.52;nan;100911.97;5095118;28;20544;-66
2021/10/05 03:51:30;;;;;;;11.50;7.03;;;;;;;14.65;nan;100907.47;5094899;28;20204;-66
2021/10/05 03:53:57;;;;;;;16.53;7.90;;;;;;;14.61;nan;100914.91;5093652;28;20194;-66
2021/10/05 03:56:22;;;;;;;25.60;9.57;;;;;;;14.72;nan;100914.16;5095480;28;20204;-66
2021/10/05 03:58:48;;;;;;;12.67;7.63;;;;;;;14.78;nan;100920.91;5095296;28;20178;-66
2021/10/05 04:01:13;;;;;;;17.97;7.70;;;;;;;14.74;nan;100917.59;5095309;28;20170;-67
2021/10/05 04:03:39;;;;;;;16.43;8.10;;;;;;;14.76;nan;100912.09;5095216;28;20194;-66
2021/10/05 04:06:04;;;;;;;13.53;8.10;;;;;;;14.77;nan;100906.63;5095141;28;20247;-66
2021/10/05 04:08:30;;;;;;;17.43;8.20;;;;;;;14.77;nan;100903.09;5094870;28;20256;-67
2021/10/05 04:10:55;;;;;;;25.87;8.83;;;;;;;14.76;nan;100904.91;5094576;28;20221;-66
2021/10/05 04:13:20;;;;;;;16.70;8.27;;;;;;;14.64;nan;100905.75;5094247;28;20259;-66
2021/10/05 04:15:45;;;;;;;17.67;7.50;;;;;;;14.22;nan;100896.06;5095120;28;20213;-68
2021/10/05 04:18:11;;;;;;;15.10;7.90;;;;;;;14.04;nan;100901.69;5093214;28;20178;-67
2021/10/05 04:20:36;;;;;;;14.33;7.23;;;;;;;14.29;nan;100900.94;5094780;28;20170;-67
2021/10/05 04:23:02;;;;;;;10.47;6.90;;;;;;;14.42;nan;100895.56;5094602;28;20224;-66
2021/10/05 04:25:27;;;;;;;11.73;7.10;;;;;;;14.39;nan;100909.22;5094619;28;20178;-67
2021/10/05 04:27:52;;;;;;;16.73;7.73;;;;;;;14.50;nan;100916.59;5094275;28;20185;-67
2021/10/05 04:30:19;;;;;;;15.90;7.47;;;;;;;14.51;nan;100916.50;5093375;28;20233;-67
2021/10/05 04:32:45;;;;;;;10.87;6.37;;;;;;;14.34;nan;100914.91;5094429;28;20281;-68
2021/10/05 04:35:10;;;;;;;14.83;6.67;;;;;;;14.20;nan;100911.44;5093544;28;20668;-67
2021/10/05 04:37:36;;;;;;;10.83;6.70;;;;;;;14.29;nan;100911.66;5092819;28;20193;-66
2021/10/05 04:40:01;;;;;;;12.00;6.77;;;;;;;14.44;nan;100908.94;5094151;28;20171;-67
2021/10/05 04:42:27;;;;;;;11.43;6.57;;;;;;;14.36;nan;100906.75;5092483;28;20198;-67
2021/10/05 04:44:53;;;;;;;13.70;7.03;;;;;;;14.63;nan;100898.66;5075076;28;20238;-68
2021/10/05 04:47:18;;;;;;;12.23;7.07;;;;;;;14.30;nan;100893.72;5093781;28;20178;-67
2021/10/05 04:49:43;;;;;;;14.83;7.53;;;;;;;14.29;nan;100886.66;5093629;28;20174;-68
2021/10/05 04:52:08;;;;;;;12.33;7.30;;;;;;;14.23;nan;100884.38;5093678;28;20209;-67
2021/10/05 04:54:34;;;;;;;11.60;7.07;;;;;;;14.36;nan;100879.88;5093233;28;20182;-68
2021/10/05 04:57:00;;;;;;;15.80;7.37;;;;;;;14.48;nan;100883.59;5093787;28;20209;-68
2021/10/05 04:59:25;;;;;;;17.27;7.03;;;;;;;14.48;nan;100886.28;5092534;28;20174;-68
2021/10/05 05:01:50;;;;;;;17.90;7.23;;;;;;;14.61;nan;100887.19;5094378;28;20584;-68
2021/10/05 05:04:16;;;;;;;11.30;6.97;;;;;;;14.64;nan;100885.13;5094342;28;20186;-67
2021/10/05 05:06:42;;;;;;;15.23;6.97;;;;;;;14.66;nan;100877.81;5093592;28;20202;-67
2021/10/05 05:09:08;;;;;;;18.30;6.93;;;;;;;14.55;nan;100874.16;5092687;28;20181;-67
2021/10/05 05:11:33;;;;;;;14.27;7.93;;;;;;;14.61;nan;100874.59;5094193;28;20660;-67
2021/10/05 05:14:05;;;;;;;13.40;6.73;;;;;;;14.63;nan;100874.50;5093185;28;20263;-67
2021/10/05 05:16:30;;;;;;;18.27;8.33;;;;;;;14.61;nan;100869.22;5092339;28;20261;-68
2021/10/05 05:18:55;;;;;;;21.13;8.47;;;;;;;14.64;nan;100869.03;5093310;28;20170;-67
2021/10/05 05:21:21;;;;;;;22.33;8.87;;;;;;;14.59;nan;100859.56;5093726;28;20175;-67
2021/10/05 05:23:46;;;;;;;23.17;9.40;;;;;;;14.58;nan;100856.00;5092148;28;20560;-68
2021/10/05 05:26:11;;;;;;;18.33;9.33;;;;;;;14.56;nan;100859.78;5093240;28;20178;-67
2021/10/05 05:28:36;;;;;;;14.47;7.93;;;;;;;14.53;nan;100860.84;5093373;28;20231;-68
2021/10/05 05:31:02;;;;;;;18.33;9.50;;;;;;;14.61;nan;100849.56;5093320;28;20194;-67
2021/10/05 05:33:27;;;;;;;18.07;9.40;;;;;;;14.39;nan;100831.34;5093208;28;20281;-66
2021/10/05 05:35:52;;;;;;;24.03;9.73;;;;;;;14.40;nan;100838.44;5093604;28;20178;-67
2021/10/05 05:38:21;;;;;;;27.87;8.67;;;;;;;14.59;nan;100851.50;5093561;28;20203;-67
2021/10/05 05:40:46;;;;;;;21.47;8.33;;;;;;;14.57;nan;100848.94;5092599;28;20243;-67
2021/10/05 05:43:12;;;;;;;21.73;7.70;;;;;;;14.56;nan;100847.22;5093152;28;20198;-67
2021/10/05 05:45:37;;;;;;;12.00;7.50;;;;;;;14.56;nan;100839.16;5093423;28;20574;-67
2021/10/05 05:48:03;;;;;;;12.50;7.03;;;;;;;14.61;nan;100842.38;5093659;28;20184;-68
2021/10/05 05:50:28;;;;;;;14.00;6.80;;;;;;;14.56;nan;100835.59;5093276;28;20198;-67
2021/10/05 05:52:53;;;;;;;15.23;6.37;;;;;;;14.26;nan;100819.75;5093507;28;20675;-67
2021/10/05 05:55:19;;;;;;;13.27;6.03;;;;;;;14.32;nan;100828.22;5095044;28;20640;-67
2021/10/05 05:57:47;;;;;;;13.67;6.57;;;;;;;14.14;nan;100825.94;5097895;28;20174;-66
2021/10/05 06:00:13;;;;;;;15.37;7.20;;;;;;;14.40;nan;100817.81;5098347;28;20256;-67
2021/10/05 06:02:38;;;;;;;13.00;6.70;;;;;;;14.35;nan;100813.72;5096692;28;20659;-68
2021/10/05 06:05:04;;;;;;;22.83;7.13;;;;;;;14.29;nan;100811.47;5097231;28;20174;-68
2021/10/05 06:07:29;;;;;;;11.23;5.40;;;;;;;14.08;nan;100806.59;5096844;28;20609;-68
2021/10/05 06:09:55;;;;;;;16.60;6.17;;;;;;;13.84;nan;100819.00;5097125;28;20655;-67
2021/10/05 06:12:21;;;;;;;14.80;5.23;;;;;;;13.93;nan;100821.06;5097150;28;20209;-66
2021/10/05 06:14:46;;;;;;;14.30;5.47;;;;;;;14.06;nan;100808.53;5096043;28;20307;-68
2021/10/05 06:17:12;;;;;;;15.67;5.17;;;;;;;14.00;nan;100808.06;5097238;28;20644;-68
2021/10/05 06:19:37;;;;;;;11.00;4.57;;;;;;;14.21;nan;100800.41;5096885;28;20200;-67
2021/10/05 06:22:02;;;;;;;21.10;5.63;;;;;;;14.14;nan;100804.47;5095412;28;20197;-68
2021/10/05 06:24:28;;;;;;;14.43;4.40;;;;;;;13.92;nan;100797.00;5095089;28;20212;-68
2021/10/05 06:26:53;;;;;;;15.77;3.80;;;;;;;13.90;nan;100796.25;5096807;28;20182;-68
2021/10/05 06:29:18;;;;;;;10.43;3.63;;;;;;;13.81;nan;100792.38;5078637;28;20228;-68
2021/10/05 06:31:44;;;;;;;21.87;4.00;;;;;;;13.71;nan;100778.69;5096856;28;20198;-67
2021/10/05 06:34:09;;;;;;;15.17;4.17;;;;;;;13.71;nan;100765.28;5095876;28;20170;-67
2021/10/05 06:36:34;;;;;;;4.77;3.63;;;;;;;13.74;nan;100773.13;5096549;28;20540;-68
2021/10/05 06:39:00;;;;;;;10.97;3.83;;;;;;;13.54;nan;100773.59;5078559;28;20189;-68
2021/10/05 06:41:25;;;;;;;8.93;3.60;;;;;;;13.52;nan;100766.63;5096523;28;20257;-67
2021/10/05 06:43:51;;;;;;;13.27;4.03;;;;;;;13.58;nan;100760.84;5095284;28;20190;-68
2021/10/05 06:46:16;;;;;;;10.20;3.40;;;;;;;13.62;nan;100757.00;5095116;28;20182;-67
2021/10/05 06:48:41;;;;;;;6.30;3.40;;;;;;;13.43;nan;100750.19;5095082;28;20201;-67
2021/10/05 06:51:07;;;;;;;9.87;3.70;;;;;;;13.13;nan;100744.13;5096432;28;20251;-68
2021/10/05 06:53:32;;;;;;;9.07;4.07;;;;;;;13.41;nan;100730.66;5096103;28;20198;-68
2021/10/05 06:55:58;;;;;;;7.93;3.30;;;;;;;13.15;nan;100729.66;5096819;28;20178;-68
2021/10/05 06:58:23;;;;;;;9.13;3.47;;;;;;;13.39;nan;100731.72;5102240;28;20179;-67
2021/10/05 07:00:48;;;;;;;8.50;4.13;;;;;;;13.36;nan;100716.69;5105129;28;20174;-68
2021/10/05 07:03:14;;;;;;;18.73;5.30;;;;;;;13.41;nan;100716.41;5097716;28;20202;-68
2021/10/05 07:05:39;;;;;;;17.43;6.27;;;;;;;13.49;nan;100697.13;5095640;28;20567;-67
2021/10/05 07:08:08;;;;;;;12.07;5.63;;;;;;;13.19;nan;100702.69;5095759;28;20178;-68
2021/10/05 07:10:35;;;;;;;18.47;5.60;;;;;;;13.50;nan;100696.16;5095896;28;20202;-68
2021/10/05 07:13:01;;;;;;;12.00;4.77;;;;;;;13.26;nan;100687.91;5094413;28;20549;-68
2021/10/05 07:15:26;;;;;;;10.63;4.73;;;;;;;13.06;nan;100687.41;5095331;28;20199;-67
2021/10/05 07:17:53;;;;;;;8.20;4.50;;;;;;;13.05;nan;100680.31;5096181;28;20178;-68
2021/10/05 07:20:18;;;;;;;7.93;4.27;;;;;;;13.28;nan;100683.31;5094762;28;20200;-68
2021/10/05 07:22:43;;;;;;;14.40;5.33;;;;;;;13.34;nan;100681.06;5096081;28;20201;-67
2021/10/05 07:25:09;;;;;;;14.03;5.43;;;;;;;13.05;nan;100674.09;5096060;28;20174;-68
2021/10/05 07:27:35;;;;;;;22.80;5.60;;;;;;;13.54;nan;100676.22;5096151;28;20643;-67
2021/10/05 07:30:03;;;;;;;7.87;4.03;;;;;;;13.41;nan;100666.31;5093993;28;20261;-67
2021/10/05 07:32:28;;;;;;;11.30;4.40;;;;;;;13.45;nan;100662.47;5095182;28;20194;-68
2021/10/05 07:34:54;;;;;;;12.40;4.13;;;;;;;13.36;nan;100665.75;5096115;28;20178;-68
2021/10/05 07:37:19;;;;;;;18.80;5.57;;;;;;;13.46;nan;100663.34;5096010;28;20245;-68
2021/10/05 07:39:44;;;;;;;11.90;4.03;;;;;;;13.53;nan;100669.13;5096172;28;20174;-68
2021/10/05 07:42:09;;;;;;;12.13;3.70;;;;;;;13.27;nan;100660.16;5095668;28;20194;-68
2021/10/05 07:44:35;;;;;;;10.90;2.77;;;;;;;13.30;nan;100647.41;5095972;28;20655;-68
2021/10/05 07:47:01;;;;;;;5.27;2.83;;;;;;;13.45;nan;100640.16;5095770;28;20631;-68
2021/10/05 07:49:26;;;;;;;14.00;3.40;;;;;;;13.59;nan;100647.25;5093947;28;20224;-68
2021/10/05 07:51:52;;;;;;;10.23;3.23;;;;;;;13.53;nan;100634.28;5093601;28;20202;-68
2021/10/05 07:54:17;;;;;;;9.23;2.93;;;;;;;13.67;nan;100624.31;5094770;28;20175;-68
2021/10/05 07:56:42;;;;;;;4.07;2.77;;;;;;;13.39;nan;100619.16;5094793;28;20177;-68
2021/10/05 07:59:08;;;;;;;8.60;2.90;;;;;;;13.70;nan;100617.88;5094808;28;20177;-68
2021/10/05 08:01:36;;;;;;;7.47;2.90;;;;;;;13.47;nan;100605.22;5094547;28;20201;-68
2021/10/05 08:04:01;;;;;;;7.47;2.80;;;;;;;13.46;nan;100607.03;5094626;28;20613;-68
2021/10/05 08:06:27;;;;;;;7.80;2.47;;;;;;;13.19;nan;100599.03;5093551;28;20253;-68
2021/10/05 08:08:52;;;;;;;5.27;2.90;;;;;;;13.41;nan;100596.63;5093446;28;20170;-69
2021/10/05 08:11:19;;;;;;;3.60;2.40;;;;;;;13.59;nan;100588.28;5093349;28;20234;-69
2021/10/05 08:13:44;;;;;;;8.73;2.53;;;;;;;13.39;nan;100593.19;5093523;28;20206;-68
2021/10/05 08:16:10;;;;;;;5.10;2.10;;;;;;;13.41;nan;100591.25;5093280;28;20211;-68
2021/10/05 08:18:35;;;;;;;3.40;2.10;;;;;;;12.64;nan;100589.28;5092223;28;20185;-67
2021/10/05 08:21:00;;;;;;;9.47;2.63;;;;;;;13.18;nan;100589.28;5094257;28;20257;-68
2021/10/05 08:23:26;;;;;;;6.43;2.50;;;;;;;12.86;nan;100577.13;5093976;28;20194;-68
2021/10/05 08:25:51;;;;;;;6.57;2.00;;;;;;;12.70;nan;100567.47;5092643;28;20197;-69
2021/10/05 08:28:16;;;;;;;4.70;2.20;;;;;;;12.82;nan;100553.25;5094164;28;20213;-67
2021/10/05 08:30:42;;;;;;;6.80;2.53;;;;;;;12.87;nan;100557.44;5094239;28;20280;-67
2021/10/05 08:33:08;;;;;;;8.57;3.53;;;;;;;12.90;nan;100546.50;5092513;28;20304;-67
2021/10/05 08:35:34;;;;;;;6.97;3.90;;;;;;;13.17;nan;100552.72;5093866;28;20170;-68
2021/10/05 08:38:02;;;;;;;16.67;4.50;;;;;;;13.22;nan;100542.53;5094260;28;20174;-69
2021/10/05 08:40:27;;;;;;;8.20;3.57;;;;;;;13.13;nan;100529.75;5093876;28;20170;-69
2021/10/05 08:42:53;;;;;;;6.50;3.33;;;;;;;13.31;nan;100533.88;5093849;28;20246;-69
2021/10/05 08:45:18;;;;;;;13.40;4.40;;;;;;;13.34;nan;100530.13;5094110;28;20182;-67
2021/10/05 08:47:44;;;;;;;7.40;3.57;;;;;;;12.89;nan;100512.66;5092771;28;20522;-67
2021/10/05 08:50:10;;;;;;;13.53;4.43;;;;;;;13.62;nan;100529.06;5094154;28;20201;-67
2021/10/05 08:52:36;;;;;;;11.40;3.77;;;;;;;12.72;nan;100501.25;5093961;28;20190;-68
2021/10/05 08:55:03;;;;;;;8.27;3.70;;;;;;;13.03;nan;100499.19;5092587;28;20544;-68
2021/10/05 08:57:29;;;;;;;13.10;4.00;;;;;;;13.28;nan;100501.91;5093927;28;20651;-67
2021/10/05 08:59:54;;;;;;;10.50;4.57;;;;;;;12.63;nan;100479.56;5093802;28;20174;-67
2021/10/05 09:02:19;;;;;;;19.57;4.60;;;;;;;13.22;nan;100491.63;5093794;28;20537;-67
2021/10/05 09:04:47;;;;;;;8.30;3.47;;;;;;;13.40;nan;100486.81;5094074;28;20220;-68
2021/10/05 09:07:20;;;;;;;18.93;4.50;;;;;;;13.65;nan;100493.97;5075705;28;20174;-68
2021/10/05 09:09:56;;;;;;;11.60;4.40;;;;;;;13.54;nan;100486.69;5092289;28;20723;-68
2021/10/05 09:12:29;;;;;;;11.00;4.53;;;;;;;13.67;nan;100482.16;5128280;22;20197;-73
2021/10/05 09:14:55;;;;;;;8.33;3.60;;;;;;;13.63;nan;100478.00;5059722;28;20168;-73
2021/10/05 09:17:26;;;;;;;8.77;3.80;;;;;;;13.27;nan;100456.47;5058570;28;20172;-71
2021/10/05 09:19:52;;;;;;;10.30;4.13;;;;;;;13.33;nan;100458.72;5046709;28;20168;-73
2021/10/05 09:22:25;;;;;;;9.67;4.03;;;;;;;13.22;nan;100462.16;5053510;28;20270;-72
2021/10/05 09:24:52;;;;;;;10.87;4.93;;;;;;;13.49;nan;100470.09;5037617;28;20179;-74
2021/10/05 09:27:17;;;;;;;14.40;5.77;;;;;;;13.43;nan;100451.75;5053222;28;20167;-74
2021/10/05 09:29:44;;;;;;;9.80;4.90;;;;;;;13.37;nan;100444.97;5061594;28;20223;-74
2021/10/05 09:32:14;;;;;;;22.50;6.93;;;;;;;13.16;nan;100435.75;5062905;28;20191;-73
2021/10/05 09:34:59;;;;;;;22.13;6.83;;;;;;;13.81;nan;100424.88;5061075;28;20188;-73
2021/10/05 09:37:26;;;;;;;20.50;6.30;;;;;;;13.69;nan;100425.75;5056614;28;20179;-74
2021/10/05 09:40:12;;;;;;;15.37;6.80;;;;;;;13.60;nan;100426.41;5058647;28;20279;-74
2021/10/05 09:42:41;;;;;;;17.03;6.67;;;;;;;13.73;nan;100427.22;5058278;28;20274;-74
2021/10/05 09:45:09;;;;;;;15.27;6.70;;;;;;;13.31;nan;100417.75;5055280;28;20183;-75
2021/10/05 09:47:57;;;;;;;11.93;6.13;;;;;;;13.97;nan;100412.03;5058584;28;20176;-75
2021/10/05 09:50:34;;;;;;;13.97;6.77;;;;;;;13.69;nan;100401.59;5055786;28;20199;-75
2021/10/05 09:53:05;;;;;;;13.93;7.00;;;;;;;14.04;nan;100394.50;5053600;28;20240;-71
2021/10/05 09:55:33;;;;;;;18.13;7.73;;;;;;;14.14;nan;100389.34;5053435;28;20610;-73
2021/10/05 09:57:58;;;;;;;12.57;6.93;;;;;;;13.86;nan;100376.25;5035284;28;20191;-73
2021/10/05 10:00:26;;;;;;;17.93;7.10;;;;;;;14.37;nan;100376.84;5055699;28;20171;-73
2021/10/05 10:02:52;;;;;;;18.67;7.83;;;;;;;14.16;nan;100365.06;5054685;28;20202;-74
2021/10/05 10:05:20;;;;;;;14.93;8.37;;;;;;;13.86;nan;100361.00;5054495;28;20176;-74
2021/10/05 10:07:48;;;;;;;21.30;10.13;;;;;;;14.05;nan;100350.59;5056449;28;20262;-76
2021/10/05 10:10:19;;;;;;;18.17;9.50;;;;;;;14.07;nan;100337.06;5053590;28;20199;-73
2021/10/05 10:12:47;;;;;;;19.87;10.40;;;;;;;13.87;nan;100341.25;5037472;28;20264;-72
2021/10/05 10:15:13;;;;;;;24.33;10.97;;;;;;;14.33;nan;100335.13;5055918;28;20247;-73
2021/10/05 10:17:39;;;;;;;25.50;10.70;;;;;;;14.29;nan;100325.59;5035253;28;20268;-73
2021/10/05 10:20:06;;;;;;;21.73;10.83;;;;;;;14.44;nan;100321.75;5035785;28;20342;-75
2021/10/05 10:22:44;;;;;;;21.23;10.43;;;;;;;14.15;nan;100320.44;5053933;28;20333;-74
2021/10/05 10:25:19;;;;;;;21.93;10.70;;;;;;;14.60;nan;100333.03;5052006;28;20167;-73
2021/10/05 10:27:45;;;;;;;23.43;11.90;;;;;;;14.18;nan;100317.50;5052242;28;20246;-72
2021/10/05 10:30:11;;;;;;;30.43;13.13;;;;;;;14.29;nan;100334.50;5052071;28;20598;-73
2021/10/05 10:32:43;;;;;;;35.37;13.00;;;;;;;14.74;nan;100340.00;5051892;28;20200;-73
2021/10/05 10:35:09;;;;;;;40.00;16.00;;;;;;;14.68;nan;100338.66;5035432;28;20176;-72
2021/10/05 10:37:51;;;;;;;34.87;15.43;;;;;;;14.80;nan;100327.94;5051987;28;20657;-72
2021/10/05 10:40:32;;;;;;;21.73;11.03;;;;;;;14.73;nan;100308.75;5036214;28;20184;-72
2021/10/05 10:42:57;;;;;;;21.60;10.33;;;;;;;14.55;nan;100278.84;5054167;28;20223;-73
2021/10/05 10:45:22;;;;;;;15.10;8.90;;;;;;;14.43;nan;100257.44;5055662;28;20657;-74
2021/10/05 10:47:55;;;;;;;15.23;9.53;;;;;;;14.42;nan;100247.63;5057580;28;20183;-73
2021/10/05 10:50:20;;;;;;;16.93;9.40;;;;;;;14.23;nan;100230.28;5055487;28;20274;-72
2021/10/05 10:52:47;;;;;;;20.17;9.47;;;;;;;14.32;nan;100244.81;5055393;28;20194;-72
2021/10/05 10:55:16;;;;;;;15.67;9.67;;;;;;;14.50;nan;100237.22;5055543;28;20180;-72
2021/10/05 10:57:43;;;;;;;15.97;9.47;;;;;;;14.31;nan;100227.84;5055359;28;20180;-73
2021/10/05 11:00:11;;;;;;;16.57;9.83;;;;;;;14.97;nan;100220.84;5057414;28;20622;-73
2021/10/05 11:02:43;;;;;;;17.77;9.53;;;;;;;15.27;nan;100212.13;5072281;28;20200;-73
2021/10/05 11:05:09;;;;;;;14.27;8.70;;;;;;;14.49;nan;100219.34;5073194;28;20180;-71
2021/10/05 11:07:34;;;;;;;17.77;9.83;;;;;;;15.11;nan;100240.34;5039318;28;20661;-71
2021/10/05 11:09:59;;;;;;;17.40;9.17;;;;;;;15.11;nan;100245.72;5055808;28;20180;-69
2021/10/05 11:12:25;;;;;;;12.83;8.17;;;;;;;14.97;nan;100236.97;5054732;28;20215;-71
2021/10/05 11:14:50;;;;;;;15.33;8.67;;;;;;;15.12;nan;100221.41;5055138;28;20168;-72
2021/10/05 11:17:17;;;;;;;16.53;8.93;;;;;;;15.08;nan;100214.59;5054830;28;20320;-72
2021/10/05 11:19:42;;;;;;;17.53;9.83;;;;;;;14.89;nan;100211.69;5040457;28;20179;-72
2021/10/05 11:22:10;;;;;;;27.90;13.47;;;;;;;14.89;nan;100209.88;5055938;28;20642;-72
2021/10/05 11:24:40;;;;;;;25.00;14.00;;;;;;;14.67;nan;100207.19;5054978;28;20273;-71
2021/10/05 11:27:17;;;;;;;17.60;10.73;;;;;;;15.30;nan;100214.56;5038290;28;20180;-71
2021/10/05 11:29:42;;;;;;;12.30;8.97;;;;;;;15.48;nan;100208.63;5037880;28;20622;-72
2021/10/05 11:32:10;;;;;;;15.87;9.70;;;;;;;15.66;nan;100211.66;5054287;28;20283;-71
2021/10/05 11:34:37;;;;;;;12.90;9.20;;;;;;;15.78;nan;100199.84;5054494;28;20184;-73